EDT,Max TemperatureF,Mean TemperatureF,Min TemperatureF,Max Dew PointF,MeanDew PointF,Min DewpointF,Max Humidity, Mean Humidity, Min Humidity, Max Sea Level PressureIn, Mean Sea Level PressureIn, Min Sea Level PressureIn, Max VisibilityMiles, Mean VisibilityMiles, Min VisibilityMiles, Max Wind SpeedMPH, Mean Wind SpeedMPH, Max Gust SpeedMPH,PrecipitationIn, CloudCover, Events, WindDirDegrees
2013-3-1,38,35,31,29,27,25,89,77,64,29.79,29.72,29.63,10,9,2,18,10,23,0.01,8,Snow,348
2013-3-2,32,28,23,28,23,19,92,81,69,29.81,29.78,29.75,10,5,2,15,8,18,0.10,8,Snow,352
2013-3-3,31,27,23,22,20,17,88,76,63,29.78,29.74,29.69,10,7,2,16,4,21,0.01,8,Snow,7
2013-3-4,29,27,24,20,18,15,81,70,58,29.92,29.79,29.73,10,7,1,17,9,23,0.05,8,Snow,360
2013-3-5,36,30,24,25,22,19,88,76,64,30.14,30.07,29.91,10,9,2,13,4,15,T,6,Snow,31
2013-3-6,44,33,22,28,22,19,88,66,44,30.20,30.17,30.12,10,8,5,16,4,22,0.00,6,,66
2013-3-7,37,34,30,23,20,18,72,60,48,30.23,30.20,30.18,10,10,10,15,9,18,0.00,8,,7
2013-3-8,39,34,28,23,22,21,75,65,54,30.36,30.27,30.18,10,10,10,21,10,25,T,5,,349
2013-3-9,47,35,22,24,21,19,88,63,37,30.39,30.35,30.33,10,10,9,10,4,15,0.00,0,,351
2013-3-10,56,41,26,25,21,19,81,53,24,30.33,30.22,30.12,10,10,10,25,11,35,0.00,2,,178
2013-3-11,50,46,41,30,27,24,57,48,39,30.14,30.03,29.93,10,10,10,25,16,36,0.00,4,,185
2013-3-12,54,46,37,49,42,29,92,69,46,29.95,29.80,29.71,10,8,2,20,12,28,1.08,8,Rain,184
2013-3-13,42,36,30,34,31,25,92,73,53,29.83,29.80,29.75,10,8,1,16,3,22,0.01,7,Snow,249
2013-3-14,33,26,18,23,11,2,66,54,42,29.94,29.83,29.74,10,8,2,24,13,32,T,7,Snow,298
2013-3-15,33,24,15,28,17,2,85,61,36,29.95,29.70,29.58,10,6,0,17,9,30,0.09,6,Fog-Snow,240
2013-3-16,27,22,16,17,11,7,74,60,46,29.95,29.87,29.77,10,10,6,21,6,25,T,6,Snow,342
2013-3-17,26,19,11,12,6,-1,80,56,32,30.37,30.13,29.95,10,8,0,22,7,29,0.01,3,Fog-Snow,353
2013-3-18,33,21,8,13,5,-2,80,53,25,30.46,30.34,30.12,10,10,10,12,3,17,0.01,2,,243
2013-3-19,33,31,28,30,27,21,92,89,85,30.08,29.85,29.72,10,2,0,15,4,20,0.54,8,Fog-Snow,175
2013-3-20,33,29,24,28,22,13,92,70,47,29.73,29.69,29.65,10,5,0,14,7,20,0.02,7,Fog-Snow,215
2013-3-21,36,29,21,20,15,12,77,59,41,29.74,29.70,29.65,10,10,10,15,8,18,0.00,3,,205
2013-3-22,35,27,19,23,18,14,77,64,51,29.77,29.71,29.67,10,8,1,15,6,20,T,7,Snow,276
2013-3-23,37,33,29,23,20,17,69,57,44,29.83,29.74,29.69,10,10,5,24,12,33,T,8,Snow,292
2013-3-24,38,32,26,25,22,20,75,64,52,29.90,29.85,29.81,10,10,6,16,9,22,T,6,Snow,339
2013-3-25,43,33,22,28,23,18,84,67,50,29.83,29.71,29.60,10,10,10,21,6,24,0.00,4,,343
2013-3-26,46,39,32,26,23,20,75,56,37,29.82,29.75,29.65,10,10,10,18,8,26,0.00,5,,334
2013-3-27,50,41,31,31,26,23,76,58,39,29.96,29.87,29.79,10,10,10,18,7,24,0.03,6,Rain,333
2013-3-28,52,44,35,34,33,30,92,69,46,30.07,30.00,29.94,10,8,2,14,3,18,0.04,7,Rain,346
2013-3-29,49,44,38,34,31,26,79,61,42,30.09,30.07,30.04,10,10,10,16,6,22,0.01,7,Rain,291
2013-3-30,51,40,28,29,19,9,85,51,17,30.14,30.10,30.06,10,10,10,15,3,20,0.00,0,,354
2013-3-31,56,41,26,39,24,18,83,55,26,30.10,29.91,29.72,10,10,9,24,10,33,0.04,3,Rain,181